Time;durP1;ratioP1;P1;durP2;ratioP2;P2;SDS_P1;SDS_P2;PMS_P1;PMS_P2;Temp;Humidity;BMP_temperature;BMP_pressure;BME280_temperature;BME280_humidity;BME280_pressure;Samples;Min_cycle;Max_cycle;Signal;HPM_P1;HPM_P2
2022/06/09 00:02:19;;;;;;;;;;;20.30;68.30;;;;;;5056140;28;937;-71
2022/06/09 00:04:45;;;;;;;;;;;20.30;68.30;;;;;;5055130;28;1874;-71
2022/06/09 00:07:14;;;;;;;;;;;20.30;68.30;;;;;;5073308;28;851;-71
2022/06/09 00:09:41;;;;;;;;;;;20.30;68.30;;;;;;5055045;28;1146;-71
2022/06/09 00:12:07;;;;;;;;;;;20.30;68.30;;;;;;5072362;28;985;-70
2022/06/09 00:14:32;;;;;;;;;;;20.30;68.30;;;;;;5056554;28;1217;-71
2022/06/09 00:16:58;;;;;;;;;;;20.30;68.30;;;;;;5073325;28;1073;-71
2022/06/09 00:19:23;;;;;;;;;;;20.30;68.40;;;;;;5060977;28;1162;-70
2022/06/09 00:21:49;;;;;;;;;;;20.30;68.30;;;;;;5051918;28;915;-71
2022/06/09 00:24:14;;;;;;;;;;;20.30;68.40;;;;;;5058199;28;2066;-70
2022/06/09 00:26:40;;;;;;;;;;;20.30;68.40;;;;;;5066497;28;1961;-71
2022/06/09 00:29:05;;;;;;;;;;;20.30;68.40;;;;;;5065088;28;1140;-71
2022/06/09 00:31:31;;;;;;;;;;;20.30;68.40;;;;;;5072924;28;1138;-71
2022/06/09 00:33:56;;;;;;;;;;;20.30;68.40;;;;;;5072922;28;1298;-72
2022/06/09 00:36:22;;;;;;;;;;;20.30;68.40;;;;;;5047827;28;1153;-72
2022/06/09 00:38:47;;;;;;;;;;;20.30;68.40;;;;;;5072792;28;1192;-70
2022/06/09 00:41:12;;;;;;;;;;;20.30;68.40;;;;;;5073082;28;800;-71
2022/06/09 00:43:40;;;;;;;;;;;20.30;68.40;;;;;;5055225;28;1213;-71
2022/06/09 00:46:15;;;;;;;;;;;20.30;68.40;;;;;;5054597;28;1894;-71
2022/06/09 00:48:42;;;;;;;;;;;20.30;68.40;;;;;;5072747;28;811;-72
2022/06/09 00:51:26;;;;;;;;;;;20.30;68.40;;;;;;5054554;28;796;-70
2022/06/09 00:53:53;;;;;;;;;;;20.30;68.40;;;;;;5072344;28;1692;-68
2022/06/09 00:56:19;;;;;;;;;;;20.30;68.40;;;;;;5038820;28;1176;-72
2022/06/09 00:58:45;;;;;;;;;;;20.30;69.20;;;;;;5054523;28;895;-72
2022/06/09 01:01:11;;;;;;;;;;;20.30;68.50;;;;;;5054447;28;1354;-71
2022/06/09 01:03:57;;;;;;;;;;;20.30;68.40;;;;;;5072475;28;1363;-71
2022/06/09 01:06:27;;;;;;;;;;;20.30;68.50;;;;;;5069733;28;1961;-71
2022/06/09 01:08:58;;;;;;;;;;;20.30;68.50;;;;;;5037724;28;1432;-71
2022/06/09 01:11:24;;;;;;;;;;;20.30;68.50;;;;;;5070660;28;827;-72
2022/06/09 01:13:49;;;;;;;;;;;20.30;68.40;;;;;;5071169;28;1358;-71
2022/06/09 01:16:34;;;;;;;;;;;20.30;68.50;;;;;;5058071;28;1269;-68
2022/06/09 01:19:04;;;;;;;;;;;20.30;68.50;;;;;;5074126;28;1139;-68
2022/06/09 01:21:29;;;;;;;;;;;20.30;68.50;;;;;;5057857;28;902;-68
2022/06/09 01:24:13;;;;;;;;;;;20.30;68.50;;;;;;5075558;28;1208;-70
2022/06/09 01:26:45;;;;;;;;;;;20.30;68.50;;;;;;5055532;28;1906;-71
2022/06/09 01:29:13;;;;;;;;;;;20.30;68.50;;;;;;5055259;28;886;-70
2022/06/09 01:31:41;;;;;;;;;;;20.30;68.50;;;;;;5055306;28;866;-68
2022/06/09 01:34:13;;;;;;;;;;;20.30;68.50;;;;;;5055257;28;1181;-68
2022/06/09 01:36:41;;;;;;;;;;;20.30;68.50;;;;;;5055346;28;1077;-68
2022/06/09 01:39:06;;;;;;;;;;;20.30;68.50;;;;;;5053893;28;799;-68
2022/06/09 01:41:32;;;;;;;;;;;20.30;68.50;;;;;;5055390;28;760;-71
2022/06/09 01:43:57;;;;;;;;;;;20.30;68.50;;;;;;5053883;28;1213;-68
2022/06/09 01:46:29;;;;;;;;;;;20.30;68.50;;;;;;5053995;28;1910;-68
2022/06/09 01:48:55;;;;;;;;;;;20.30;68.50;;;;;;5055398;28;874;-68
2022/06/09 01:51:21;;;;;;;;;;;20.30;68.50;;;;;;5053566;28;883;-68
2022/06/09 01:53:48;;;;;;;;;;;20.30;68.50;;;;;;5054879;28;1278;-68
2022/06/09 01:56:21;;;;;;;;;;;20.30;68.60;;;;;;5053839;28;863;-70
2022/06/09 01:58:53;;;;;;;;;;;20.20;68.50;;;;;;5053621;28;882;-70
2022/06/09 02:01:21;;;;;;;;;;;20.30;68.50;;;;;;5036753;28;1508;-70
2022/06/09 02:03:47;;;;;;;;;;;20.30;68.50;;;;;;5053666;28;1275;-68
2022/06/09 02:06:12;;;;;;;;;;;20.30;68.60;;;;;;5054829;28;1894;-68
2022/06/09 02:08:38;;;;;;;;;;;20.20;68.50;;;;;;5056002;28;1167;-68
2022/06/09 02:11:07;;;;;;;;;;;20.30;68.60;;;;;;5053156;28;807;-68
2022/06/09 02:13:34;;;;;;;;;;;20.20;68.50;;;;;;5053374;28;1302;-69
2022/06/09 02:16:06;;;;;;;;;;;20.20;68.60;;;;;;5054751;28;859;-68
2022/06/09 02:18:35;;;;;;;;;;;20.30;68.60;;;;;;5059389;28;1143;-68
2022/06/09 02:21:02;;;;;;;;;;;20.30;68.60;;;;;;5056480;28;756;-68
2022/06/09 02:23:28;;;;;;;;;;;20.30;68.60;;;;;;5056356;28;1161;-70
2022/06/09 02:25:54;;;;;;;;;;;20.30;68.60;;;;;;5053688;28;1961;-68
2022/06/09 02:28:19;;;;;;;;;;;20.30;68.60;;;;;;5053238;28;1424;-68
2022/06/09 02:30:45;;;;;;;;;;;20.30;68.60;;;;;;5061667;28;1176;-68
2022/06/09 02:33:10;;;;;;;;;;;20.30;68.70;;;;;;5065959;28;1338;-69
2022/06/09 02:35:37;;;;;;;;;;;20.30;68.60;;;;;;5066212;28;1742;-70
2022/06/09 02:38:02;;;;;;;;;;;20.30;68.60;;;;;;5067595;28;1743;-68
2022/06/09 02:40:28;;;;;;;;;;;20.30;68.70;;;;;;5071412;28;1502;-70
2022/06/09 02:42:53;;;;;;;;;;;20.20;68.60;;;;;;5052322;28;1294;-70
2022/06/09 02:45:19;;;;;;;;;;;20.30;68.70;;;;;;5046017;28;1957;-71
2022/06/09 02:47:44;;;;;;;;;;;20.30;68.70;;;;;;5062448;28;1242;-70
2022/06/09 02:50:10;;;;;;;;;;;20.20;68.60;;;;;;5036360;28;835;-70
2022/06/09 02:52:35;;;;;;;;;;;20.30;68.70;;;;;;5036491;28;1221;-70
2022/06/09 02:55:01;;;;;;;;;;;20.30;68.70;;;;;;5054445;28;858;-70
2022/06/09 02:57:29;;;;;;;;;;;20.30;68.70;;;;;;5054437;28;811;-70
2022/06/09 02:59:54;;;;;;;;;;;20.30;68.70;;;;;;5054343;28;838;-69
2022/06/09 03:02:20;;;;;;;;;;;20.30;68.70;;;;;;5036437;28;811;-70
2022/06/09 03:04:45;;;;;;;;;;;20.30;68.70;;;;;;5053932;28;1971;-70
2022/06/09 03:07:12;;;;;;;;;;;20.20;68.70;;;;;;5053897;28;1005;-71
2022/06/09 03:09:37;;;;;;;;;;;20.20;68.70;;;;;;5049947;28;1170;-71
2022/06/09 03:12:03;;;;;;;;;;;20.30;68.80;;;;;;5073712;28;811;-69
2022/06/09 03:14:28;;;;;;;;;;;20.30;68.70;;;;;;5072328;28;1219;-70
2022/06/09 03:16:54;;;;;;;;;;;20.30;68.80;;;;;;5073869;28;1029;-69
2022/06/09 03:19:19;;;;;;;;;;;20.30;68.80;;;;;;5061265;28;1181;-69
2022/06/09 03:21:45;;;;;;;;;;;20.30;68.80;;;;;;5053389;28;795;-69
2022/06/09 03:24:10;;;;;;;;;;;20.30;68.70;;;;;;5053713;28;1220;-69
2022/06/09 03:26:36;;;;;;;;;;;20.30;68.80;;;;;;5055236;28;1977;-69
2022/06/09 03:29:01;;;;;;;;;;;20.30;68.80;;;;;;5073598;28;910;-69
2022/06/09 03:31:27;;;;;;;;;;;20.30;68.80;;;;;;5072091;28;957;-69
2022/06/09 03:33:52;;;;;;;;;;;20.20;68.70;;;;;;5073419;28;1208;-69
2022/06/09 03:36:18;;;;;;;;;;;20.30;69.50;;;;;;5055105;28;1278;-69
2022/06/09 03:38:43;;;;;;;;;;;20.30;68.80;;;;;;5072045;28;969;-70
2022/06/09 03:41:09;;;;;;;;;;;20.20;68.70;;;;;;5055100;28;1100;-70
2022/06/09 03:43:34;;;;;;;;;;;20.30;68.80;;;;;;5072122;28;1289;-70
2022/06/09 03:46:00;;;;;;;;;;;20.30;68.80;;;;;;5072077;28;1906;-70
2022/06/09 03:48:26;;;;;;;;;;;20.20;68.70;;;;;;5072099;28;740;-70
2022/06/09 03:50:52;;;;;;;;;;;20.30;68.80;;;;;;5054862;28;2102;-69
2022/06/09 03:53:17;;;;;;;;;;;20.30;68.80;;;;;;5072075;28;1220;-70
2022/06/09 03:55:42;;;;;;;;;;;20.20;68.80;;;;;;5073135;28;843;-70
2022/06/09 03:58:11;;;;;;;;;;;20.30;68.80;;;;;;5072051;28;816;-70
2022/06/09 04:00:36;;;;;;;;;;;20.30;68.80;;;;;;5072700;28;858;-71
2022/06/09 04:03:02;;;;;;;;;;;20.30;68.80;;;;;;5073055;28;1276;-71
2022/06/09 04:05:28;;;;;;;;;;;20.30;68.80;;;;;;5054824;28;1964;-71
2022/06/09 04:07:53;;;;;;;;;;;20.30;68.80;;;;;;5073058;28;788;-70
2022/06/09 04:10:23;;;;;;;;;;;20.30;68.80;;;;;;5054971;28;1261;-73
2022/06/09 04:12:49;;;;;;;;;;;20.30;68.80;;;;;;5053068;28;2535;-70
2022/06/09 04:15:15;;;;;;;;;;;20.20;68.80;;;;;;5056812;28;1821;-67
2022/06/09 04:17:41;;;;;;;;;;;20.30;68.80;;;;;;5070211;28;1089;-67
2022/06/09 04:20:07;;;;;;;;;;;20.30;68.90;;;;;;5064747;28;1047;-71
2022/06/09 04:22:33;;;;;;;;;;;20.30;68.80;;;;;;5053931;28;938;-71
2022/06/09 04:24:59;;;;;;;;;;;20.30;68.90;;;;;;5067434;28;1910;-69
2022/06/09 04:27:24;;;;;;;;;;;20.20;68.80;;;;;;5071826;28;1021;-69
2022/06/09 04:29:50;;;;;;;;;;;20.30;68.80;;;;;;5071731;28;859;-69
2022/06/09 04:32:15;;;;;;;;;;;20.30;68.80;;;;;;5071984;28;799;-70
2022/06/09 04:34:42;;;;;;;;;;;20.20;68.80;;;;;;5071993;28;1191;-71
2022/06/09 04:37:08;;;;;;;;;;;20.30;68.80;;;;;;5071648;28;870;-69
2022/06/09 04:39:33;;;;;;;;;;;20.30;68.80;;;;;;5071748;28;1005;-69
2022/06/09 04:41:58;;;;;;;;;;;20.20;68.80;;;;;;5071434;28;1005;-68
2022/06/09 04:44:24;;;;;;;;;;;20.20;68.80;;;;;;5053722;28;1344;-68
2022/06/09 04:46:50;;;;;;;;;;;20.30;68.80;;;;;;5075470;22;1917;-71
2022/06/09 04:49:15;;;;;;;;;;;20.20;68.80;;;;;;5077231;28;1973;-71
2022/06/09 04:54:07;;;;;;;;;;;20.30;68.90;;;;;;5223121;22;1852;-69
2022/06/09 04:56:33;;;;;;;;;;;20.20;68.80;;;;;;5053773;28;806;-70
2022/06/09 04:58:58;;;;;;;;;;;20.20;68.80;;;;;;5070354;28;1876;-68
2022/06/09 05:01:26;;;;;;;;;;;20.30;68.80;;;;;;5065526;28;1924;-69
2022/06/09 05:03:51;;;;;;;;;;;20.30;68.80;;;;;;5067486;28;1544;-71
2022/06/09 05:06:18;;;;;;;;;;;20.30;68.90;;;;;;5065794;28;1997;-70
2022/06/09 05:08:43;;;;;;;;;;;20.30;68.90;;;;;;5061037;28;1785;-68
2022/06/09 05:11:09;;;;;;;;;;;20.20;68.80;;;;;;5074688;28;976;-69
2022/06/09 05:13:34;;;;;;;;;;;20.20;68.80;;;;;;5075752;28;882;-69
2022/06/09 05:16:00;;;;;;;;;;;20.20;68.80;;;;;;5075643;28;1268;-68
2022/06/09 05:18:26;;;;;;;;;;;20.20;68.80;;;;;;5069277;28;1553;-69
2022/06/09 05:20:52;;;;;;;;;;;20.20;68.80;;;;;;5064090;28;1464;-68
2022/06/09 05:23:20;;;;;;;;;;;20.30;68.90;;;;;;5068785;28;1217;-69
2022/06/09 05:25:46;;;;;;;;;;;20.30;68.90;;;;;;5060211;28;2074;-69
2022/06/09 05:28:12;;;;;;;;;;;20.20;68.80;;;;;;5054059;28;901;-70
2022/06/09 05:30:38;;;;;;;;;;;20.30;68.90;;;;;;5074741;23;1637;-71
2022/06/09 05:33:03;;;;;;;;;;;20.30;68.90;;;;;;5078866;28;2229;-71
2022/06/09 05:35:29;;;;;;;;;;;20.20;68.80;;;;;;5065878;28;1365;-70
2022/06/09 05:46:23;;;;;;;;;;;20.30;68.90;;;;;;4993924;28;1973;-70
2022/06/09 05:48:49;;;;;;;;;;;20.20;68.90;;;;;;5058143;28;1131;-70
2022/06/09 05:51:15;;;;;;;;;;;20.20;68.90;;;;;;5065306;28;1790;-69
2022/06/09 05:53:40;;;;;;;;;;;20.20;68.90;;;;;;5071483;28;1217;-70
2022/06/09 05:56:06;;;;;;;;;;;20.30;69.00;;;;;;5068604;28;1253;-69
2022/06/09 05:58:32;;;;;;;;;;;20.30;69.00;;;;;;5057623;28;895;-71
2022/06/09 06:00:58;;;;;;;;;;;20.30;69.00;;;;;;5074362;28;886;-73
2022/06/09 06:03:24;;;;;;;;;;;20.30;69.00;;;;;;5075430;28;875;-71
2022/06/09 06:08:33;;;;;;;;;;;20.20;68.80;;;;;;5070338;28;1161;-72
2022/06/09 06:10:58;;;;;;;;;;;20.30;69.60;;;;;;5036999;28;1018;-72
2022/06/09 06:13:24;;;;;;;;;;;20.20;68.80;;;;;;5037233;28;1280;-71
2022/06/09 06:15:49;;;;;;;;;;;20.20;68.80;;;;;;5055056;28;1203;-73
2022/06/09 06:18:15;;;;;;;;;;;20.20;68.90;;;;;;5037350;28;1119;-73
2022/06/09 06:20:40;;;;;;;;;;;20.30;68.90;;;;;;5054846;28;796;-73
2022/06/09 06:23:06;;;;;;;;;;;20.20;68.90;;;;;;5054797;28;795;-73
2022/06/09 06:25:31;;;;;;;;;;;20.20;68.90;;;;;;5059534;28;1957;-74
2022/06/09 06:27:57;;;;;;;;;;;20.20;68.90;;;;;;5070761;28;1817;-71
2022/06/09 06:30:22;;;;;;;;;;;20.20;68.90;;;;;;5069118;28;2138;-72
2022/06/09 06:32:48;;;;;;;;;;;20.30;68.90;;;;;;5064474;28;1958;-73
2022/06/09 06:35:13;;;;;;;;;;;20.30;69.10;;;;;;5065468;28;2314;-73
2022/06/09 06:37:39;;;;;;;;;;;20.30;69.20;;;;;;5051888;28;1891;-71
2022/06/09 06:40:05;;;;;;;;;;;20.30;69.40;;;;;;5069837;28;2290;-69
2022/06/09 06:42:30;;;;;;;;;;;20.40;69.20;;;;;;5048158;28;1200;-70
2022/06/09 06:44:56;;;;;;;;;;;20.30;69.00;;;;;;5054407;28;1905;-69
2022/06/09 06:47:21;;;;;;;;;;;20.40;69.10;;;;;;5053207;28;804;-70
2022/06/09 06:49:46;;;;;;;;;;;20.30;69.00;;;;;;5054421;28;1068;-70
2022/06/09 06:52:12;;;;;;;;;;;20.40;68.90;;;;;;5053966;28;1025;-70
2022/06/09 06:54:37;;;;;;;;;;;20.40;68.90;;;;;;5054330;28;1273;-71
2022/06/09 06:57:05;;;;;;;;;;;20.30;68.90;;;;;;5054249;28;819;-70
2022/06/09 06:59:31;;;;;;;;;;;20.30;68.80;;;;;;5054327;28;810;-71
2022/06/09 07:01:57;;;;;;;;;;;20.30;68.80;;;;;;5052794;28;823;-70
2022/06/09 07:04:22;;;;;;;;;;;20.40;68.90;;;;;;5054219;28;1201;-70
2022/06/09 07:06:48;;;;;;;;;;;20.30;68.80;;;;;;5034399;28;1894;-69
2022/06/09 07:09:13;;;;;;;;;;;20.30;68.80;;;;;;5046677;28;1167;-69
2022/06/09 07:11:40;;;;;;;;;;;20.30;68.80;;;;;;5054817;28;803;-70
2022/06/09 07:14:05;;;;;;;;;;;20.30;68.90;;;;;;5074075;28;1184;-70
2022/06/09 07:16:30;;;;;;;;;;;20.30;68.80;;;;;;5056027;28;783;-70
2022/06/09 07:18:56;;;;;;;;;;;20.30;68.80;;;;;;5064672;28;1205;-70
2022/06/09 07:21:21;;;;;;;;;;;20.30;68.90;;;;;;5054020;28;780;-70
2022/06/09 07:23:47;;;;;;;;;;;20.30;68.90;;;;;;5053839;28;1197;-70
2022/06/09 07:26:12;;;;;;;;;;;20.30;68.80;;;;;;5070194;28;1951;-72
2022/06/09 07:28:38;;;;;;;;;;;20.30;68.80;;;;;;5056192;28;783;-72
2022/06/09 07:31:03;;;;;;;;;;;20.30;68.80;;;;;;5073628;28;919;-70
2022/06/09 07:33:30;;;;;;;;;;;20.30;68.90;;;;;;5056292;28;832;-72
2022/06/09 07:35:56;;;;;;;;;;;20.30;68.80;;;;;;5073602;28;1209;-71
2022/06/09 07:38:22;;;;;;;;;;;20.30;68.80;;;;;;5073938;28;775;-71
2022/06/09 07:40:48;;;;;;;;;;;20.30;68.90;;;;;;5055810;28;861;-71
2022/06/09 07:43:13;;;;;;;;;;;20.30;68.80;;;;;;5074012;28;877;-70
2022/06/09 07:45:39;;;;;;;;;;;20.30;68.90;;;;;;5074043;28;1902;-71
2022/06/09 07:48:05;;;;;;;;;;;20.30;68.90;;;;;;5074031;28;835;-71
2022/06/09 07:50:31;;;;;;;;;;;20.30;68.80;;;;;;5055630;28;792;-71
2022/06/09 07:52:57;;;;;;;;;;;20.30;68.80;;;;;;5056218;28;1022;-70
2022/06/09 07:55:22;;;;;;;;;;;20.30;68.80;;;;;;5074043;28;1184;-71
2022/06/09 07:57:48;;;;;;;;;;;20.30;68.90;;;;;;5056120;28;839;-72
2022/06/09 08:00:14;;;;;;;;;;;20.30;68.80;;;;;;5073719;28;867;-72
2022/06/09 08:02:40;;;;;;;;;;;20.30;68.90;;;;;;5039202;28;1295;-71
2022/06/09 08:05:05;;;;;;;;;;;20.30;68.80;;;;;;5055619;28;1957;-71
2022/06/09 08:07:31;;;;;;;;;;;20.30;68.90;;;;;;5056157;28;1026;-71
2022/06/09 08:09:56;;;;;;;;;;;20.30;68.90;;;;;;5056886;28;1222;-71
2022/06/09 08:12:22;;;;;;;;;;;20.30;68.80;;;;;;5053156;28;808;-71
2022/06/09 08:14:47;;;;;;;;;;;20.30;68.90;;;;;;5053058;28;1209;-71
2022/06/09 08:17:13;;;;;;;;;;;20.30;68.90;;;;;;5035539;28;879;-69
2022/06/09 08:19:38;;;;;;;;;;;20.30;68.90;;;;;;5053183;28;1151;-69
2022/06/09 08:22:03;;;;;;;;;;;20.30;68.90;;;;;;5052668;28;1061;-69
2022/06/09 08:24:33;;;;;;;;;;;20.30;68.80;;;;;;5036966;28;1231;-70
2022/06/09 08:26:58;;;;;;;;;;;20.30;68.90;;;;;;5055496;28;1902;-70
2022/06/09 08:29:24;;;;;;;;;;;20.30;68.90;;;;;;5055179;28;1072;-72
2022/06/09 08:31:50;;;;;;;;;;;20.30;68.90;;;;;;5054908;28;976;-71
2022/06/09 08:34:15;;;;;;;;;;;20.30;68.90;;;;;;5072448;28;1591;-70
2022/06/09 08:36:41;;;;;;;;;;;20.30;68.90;;;;;;5073350;28;839;-71
2022/06/09 08:39:06;;;;;;;;;;;20.30;68.90;;;;;;5072996;28;828;-71
2022/06/09 08:41:43;;;;;;;;;;;20.30;68.90;;;;;;5073206;28;878;-69
2022/06/09 08:44:08;;;;;;;;;;;20.30;68.90;;;;;;5054941;28;1188;-70
2022/06/09 08:46:53;;;;;;;;;;;20.30;68.90;;;;;;5072845;28;1902;-69
2022/06/09 08:49:30;;;;;;;;;;;20.20;68.80;;;;;;5072885;28;909;-69
2022/06/09 08:51:57;;;;;;;;;;;20.30;68.90;;;;;;5071112;28;1236;-71
2022/06/09 08:54:30;;;;;;;;;;;20.30;68.90;;;;;;5072627;28;1290;-70
2022/06/09 08:56:55;;;;;;;;;;;20.30;68.90;;;;;;5054827;28;744;-70
2022/06/09 08:59:22;;;;;;;;;;;20.30;68.90;;;;;;5053707;28;2181;-71
2022/06/09 09:01:53;;;;;;;;;;;20.20;69.00;;;;;;5072061;28;1119;-71
2022/06/09 09:04:26;;;;;;;;;;;20.30;68.80;;;;;;5054202;28;1346;-72
2022/06/09 09:07:15;;;;;;;;;;;20.20;68.80;;;;;;5065699;28;1961;-71
2022/06/09 09:09:40;;;;;;;;;;;20.30;69.00;;;;;;5048996;28;1575;-70
2022/06/09 09:12:25;;;;;;;;;;;20.20;69.00;;;;;;5052832;28;887;-72
2022/06/09 09:14:53;;;;;;;;;;;20.30;69.20;;;;;;5055910;28;1275;-72
2022/06/09 09:17:25;;;;;;;;;;;20.30;69.10;;;;;;5064464;28;1435;-72
2022/06/09 09:19:53;;;;;;;;;;;20.30;69.10;;;;;;5037661;28;1263;-70
2022/06/09 09:22:35;;;;;;;;;;;20.30;69.20;;;;;;5052820;28;812;-70
2022/06/09 09:25:16;;;;;;;;;;;20.20;69.10;;;;;;5058568;28;1914;-70
2022/06/09 09:27:54;;;;;;;;;;;20.20;69.10;;;;;;5067338;28;1029;-70
2022/06/09 09:30:20;;;;;;;;;;;20.30;69.20;;;;;;5046045;28;1205;-69
2022/06/09 09:32:52;;;;;;;;;;;20.30;69.20;;;;;;5072699;28;819;-70
2022/06/09 09:35:29;;;;;;;;;;;20.30;69.20;;;;;;5056007;28;1208;-69
2022/06/09 09:37:55;;;;;;;;;;;20.30;69.30;;;;;;5076373;28;1045;-70
2022/06/09 09:40:28;;;;;;;;;;;20.30;69.50;;;;;;5075939;28;804;-70
2022/06/09 09:42:54;;;;;;;;;;;20.30;69.50;;;;;;5058824;28;835;-70
2022/06/09 09:45:21;;;;;;;;;;;20.30;69.40;;;;;;5074125;28;2168;-72
2022/06/09 09:47:51;;;;;;;;;;;20.30;69.30;;;;;;5057885;28;1069;-70
2022/06/09 09:50:24;;;;;;;;;;;20.30;69.20;;;;;;5070620;28;1879;-70
2022/06/09 09:52:55;;;;;;;;;;;20.30;69.20;;;;;;5072968;28;1229;-70
2022/06/09 09:55:31;;;;;;;;;;;20.30;69.20;;;;;;5052571;28;1284;-69
2022/06/09 10:00:28;;;;;;;;;;;20.30;69.10;;;;;;5111997;22;2255;-70
2022/06/09 10:08:41;;;;;;;;;;;20.30;69.20;;;;;;5067627;28;1099;-77
2022/06/09 10:13:52;;;;;;;;;;;20.30;69.20;;;;;;5059370;28;1133;-76
2022/06/09 10:16:18;;;;;;;;;;;20.30;69.20;;;;;;5090489;22;3653;-70
2022/06/09 10:18:44;;;;;;;;;;;20.30;69.20;;;;;;5064961;28;1850;-70
2022/06/09 10:21:11;;;;;;;;;;;20.30;69.30;;;;;;5054563;28;1950;-72
2022/06/09 10:23:45;;;;;;;;;;;20.30;69.20;;;;;;5093813;28;1114;-71
2022/06/09 10:26:21;;;;;;;;;;;20.30;69.30;;;;;;5070260;28;1917;-70
2022/06/09 10:28:53;;;;;;;;;;;20.30;69.30;;;;;;5037008;28;972;-72
2022/06/09 10:31:38;;;;;;;;;;;20.30;69.30;;;;;;5054399;28;771;-70
2022/06/09 10:34:15;;;;;;;;;;;20.30;69.30;;;;;;5036768;28;1247;-73
2022/06/09 10:36:47;;;;;;;;;;;20.30;69.30;;;;;;5054473;28;1294;-71
2022/06/09 10:39:12;;;;;;;;;;;20.30;69.30;;;;;;5054112;28;986;-71
2022/06/09 10:41:40;;;;;;;;;;;20.30;69.30;;;;;;5054248;28;889;-71
2022/06/09 10:44:08;;;;;;;;;;;20.30;69.40;;;;;;5045212;28;1021;-70
2022/06/09 10:46:39;;;;;;;;;;;20.30;69.40;;;;;;5036003;28;1898;-69
2022/06/09 10:55:17;;;;;;;;;;;20.30;69.40;;;;;;5038900;28;681;-69
2022/06/09 10:57:59;;;;;;;;;;;20.30;69.50;;;;;;5053792;28;1214;-69
2022/06/09 11:00:28;;;;;;;;;;;20.30;69.40;;;;;;5035626;28;839;-69
2022/06/09 11:02:54;;;;;;;;;;;20.30;69.40;;;;;;5035463;28;848;-70
2022/06/09 11:05:22;;;;;;;;;;;20.30;69.40;;;;;;5034359;28;1894;-68
2022/06/09 11:07:53;;;;;;;;;;;20.30;69.50;;;;;;5044968;28;1322;-68
2022/06/09 11:10:25;;;;;;;;;;;20.20;69.40;;;;;;5052421;28;1146;-69
2022/06/09 11:12:53;;;;;;;;;;;20.30;69.40;;;;;;5034501;28;824;-69
2022/06/09 11:15:21;;;;;;;;;;;20.20;69.30;;;;;;5052453;28;950;-69
2022/06/09 11:17:59;;;;;;;;;;;20.30;70.20;;;;;;5052269;28;1308;-70
2022/06/09 11:20:46;;;;;;;;;;;20.30;69.40;;;;;;5052218;28;907;-70
2022/06/09 11:23:26;;;;;;;;;;;20.30;69.40;;;;;;5034260;28;815;-69
2022/06/09 11:25:55;;;;;;;;;;;20.30;69.50;;;;;;5065905;28;1936;-69
2022/06/09 11:28:36;;;;;;;;;;;20.30;69.40;;;;;;5072294;28;799;-69
2022/06/09 11:31:17;;;;;;;;;;;20.30;69.40;;;;;;5053571;28;2289;-69
2022/06/09 11:33:55;;;;;;;;;;;20.30;69.50;;;;;;5063742;28;1168;-69
2022/06/09 11:36:28;;;;;;;;;;;20.20;69.40;;;;;;5071830;28;1429;-69
2022/06/09 11:38:59;;;;;;;;;;;20.30;69.40;;;;;;5045915;28;1102;-69
2022/06/09 11:41:33;;;;;;;;;;;20.30;69.40;;;;;;5071848;28;859;-69
2022/06/09 11:44:16;;;;;;;;;;;20.30;69.40;;;;;;5050124;28;1106;-69
2022/06/09 11:46:42;;;;;;;;;;;20.30;69.40;;;;;;5070122;28;1961;-69
2022/06/09 11:49:12;;;;;;;;;;;20.20;69.40;;;;;;5071656;28;1021;-69
2022/06/09 11:51:37;;;;;;;;;;;20.30;69.50;;;;;;5053842;28;940;-69
2022/06/09 11:54:04;;;;;;;;;;;20.30;69.50;;;;;;5053955;28;1433;-69
2022/06/09 11:56:34;;;;;;;;;;;20.30;69.50;;;;;;5053843;28;1234;-69
2022/06/09 11:59:01;;;;;;;;;;;20.30;69.50;;;;;;5071249;28;902;-69
2022/06/09 12:01:26;;;;;;;;;;;20.30;69.50;;;;;;5053333;28;819;-70
2022/06/09 12:04:10;;;;;;;;;;;20.30;69.50;;;;;;5071723;28;993;-71
2022/06/09 12:06:47;;;;;;;;;;;20.20;69.40;;;;;;5064717;28;1967;-70
2022/06/09 12:09:25;;;;;;;;;;;20.30;69.50;;;;;;5045803;28;1382;-71
2022/06/09 12:11:58;;;;;;;;;;;20.30;69.40;;;;;;5044918;28;1304;-68
2022/06/09 12:14:36;;;;;;;;;;;20.30;69.50;;;;;;5071870;28;1091;-68
2022/06/09 12:17:05;;;;;;;;;;;20.20;69.50;;;;;;5042933;28;1247;-68
2022/06/09 12:19:49;;;;;;;;;;;20.30;69.60;;;;;;5065327;28;1055;-69
2022/06/09 12:22:33;;;;;;;;;;;20.20;69.40;;;;;;5054495;28;877;-69
2022/06/09 12:25:08;;;;;;;;;;;20.30;69.40;;;;;;5048417;28;1131;-68
2022/06/09 12:27:42;;;;;;;;;;;20.30;69.70;;;;;;5051932;28;1279;-70
2022/06/09 12:30:26;;;;;;;;;;;20.30;70.60;;;;;;5052333;28;901;-70
2022/06/09 12:33:10;;;;;;;;;;;20.30;70.80;;;;;;5052178;28;832;-69
2022/06/09 12:35:40;;;;;;;;;;;20.30;70.90;;;;;;5052621;28;1296;-70
2022/06/09 12:38:06;;;;;;;;;;;20.30;70.90;;;;;;5034777;28;874;-69
2022/06/09 12:40:33;;;;;;;;;;;20.30;70.90;;;;;;5034041;28;880;-70
2022/06/09 12:43:18;;;;;;;;;;;20.30;71.00;;;;;;5034257;28;858;-69
2022/06/09 12:45:44;;;;;;;;;;;20.30;71.10;;;;;;5042189;28;1951;-69
2022/06/09 12:48:09;;;;;;;;;;;20.30;70.80;;;;;;5046480;28;1507;-69
2022/06/09 12:50:39;;;;;;;;;;;20.30;70.70;;;;;;5060780;28;1808;-69
2022/06/09 12:53:07;;;;;;;;;;;20.30;70.90;;;;;;5042720;28;1324;-69
2022/06/09 12:55:33;;;;;;;;;;;20.30;71.40;;;;;;5018625;28;1604;-70
2022/06/09 12:58:16;;;;;;;;;;;20.40;71.90;;;;;;5034940;28;855;-70
2022/06/09 13:00:47;;;;;;;;;;;20.40;71.20;;;;;;5034496;28;816;-71
2022/06/09 13:03:22;;;;;;;;;;;20.40;70.80;;;;;;5043500;28;1476;-70
2022/06/09 13:05:48;;;;;;;;;;;20.40;70.40;;;;;;5068994;28;1902;-68
2022/06/09 13:08:23;;;;;;;;;;;20.40;70.50;;;;;;5053112;28;1395;-69
2022/06/09 13:10:53;;;;;;;;;;;20.40;70.50;;;;;;5045396;28;1561;-68
2022/06/09 13:13:20;;;;;;;;;;;20.40;70.50;;;;;;5054955;28;1018;-67
2022/06/09 13:15:56;;;;;;;;;;;20.40;70.40;;;;;;5037346;28;1242;-67
2022/06/09 13:18:26;;;;;;;;;;;20.40;70.40;;;;;;5055057;28;2185;-66
2022/06/09 13:20:58;;;;;;;;;;;20.40;70.50;;;;;;5047797;28;1342;-68
2022/06/09 13:23:23;;;;;;;;;;;20.40;70.50;;;;;;5075730;28;977;-67
2022/06/09 13:25:49;;;;;;;;;;;20.40;70.50;;;;;;5044588;28;1898;-70
2022/06/09 13:28:20;;;;;;;;;;;20.40;70.40;;;;;;5056150;28;1167;-70
2022/06/09 13:30:49;;;;;;;;;;;20.40;70.50;;;;;;5055577;28;903;-68
2022/06/09 13:33:23;;;;;;;;;;;20.40;70.50;;;;;;5055828;28;1045;-71
2022/06/09 13:35:51;;;;;;;;;;;20.30;70.40;;;;;;5055577;28;1294;-69
2022/06/09 13:38:31;;;;;;;;;;;20.30;70.40;;;;;;5037983;28;836;-69
2022/06/09 13:41:10;;;;;;;;;;;20.30;70.50;;;;;;5055613;28;880;-70
2022/06/09 13:43:37;;;;;;;;;;;20.30;70.40;;;;;;5037972;28;840;-70
2022/06/09 13:46:25;;;;;;;;;;;20.30;70.20;;;;;;5055733;28;1965;-70
2022/06/09 13:48:57;;;;;;;;;;;20.40;70.20;;;;;;5044341;28;1301;-70
2022/06/09 13:51:41;;;;;;;;;;;20.40;70.20;;;;;;5055259;28;998;-69
2022/06/09 13:54:13;;;;;;;;;;;20.30;70.20;;;;;;5055531;28;974;-70
2022/06/09 13:56:38;;;;;;;;;;;20.40;70.30;;;;;;5037494;28;1226;-70
2022/06/09 13:59:04;;;;;;;;;;;20.30;70.30;;;;;;5055887;28;787;-70
2022/06/09 14:01:29;;;;;;;;;;;20.40;70.40;;;;;;5036952;28;812;-71
2022/06/09 14:03:56;;;;;;;;;;;20.40;70.40;;;;;;5055634;28;811;-70
2022/06/09 14:06:22;;;;;;;;;;;20.30;70.30;;;;;;5055199;28;1894;-71
2022/06/09 14:08:48;;;;;;;;;;;20.40;70.80;;;;;;5037469;28;1182;-70
2022/06/09 14:11:15;;;;;;;;;;;20.40;71.10;;;;;;5037112;28;811;-70
2022/06/09 14:13:40;;;;;;;;;;;20.30;71.30;;;;;;5054994;28;708;-69
2022/06/09 14:16:06;;;;;;;;;;;20.40;71.40;;;;;;5054887;28;1213;-70
2022/06/09 14:18:33;;;;;;;;;;;20.40;71.70;;;;;;5043044;28;1123;-70
2022/06/09 14:20:59;;;;;;;;;;;20.40;71.80;;;;;;5074150;28;859;-69
2022/06/09 14:23:26;;;;;;;;;;;20.40;71.80;;;;;;5075627;28;731;-69
2022/06/09 14:25:52;;;;;;;;;;;20.40;71.90;;;;;;5061296;28;1963;-71
2022/06/09 14:28:18;;;;;;;;;;;20.40;72.00;;;;;;5054796;28;1025;-70
2022/06/09 14:30:43;;;;;;;;;;;20.40;72.10;;;;;;5054476;28;1049;-69
2022/06/09 14:33:10;;;;;;;;;;;20.40;72.20;;;;;;5037037;28;867;-70
2022/06/09 14:35:36;;;;;;;;;;;20.40;72.20;;;;;;5037034;28;1224;-69
2022/06/09 14:38:01;;;;;;;;;;;20.40;71.90;;;;;;5055534;28;859;-69
2022/06/09 14:40:28;;;;;;;;;;;20.40;71.90;;;;;;5054677;28;854;-70
2022/06/09 14:42:54;;;;;;;;;;;20.40;71.70;;;;;;5054530;28;854;-69
2022/06/09 14:45:19;;;;;;;;;;;20.40;71.90;;;;;;5054370;28;1899;-71
2022/06/09 14:47:45;;;;;;;;;;;20.40;71.80;;;;;;5054285;28;1203;-71
2022/06/09 14:50:11;;;;;;;;;;;20.40;71.70;;;;;;5054685;28;2210;-71
2022/06/09 14:52:36;;;;;;;;;;;20.40;71.90;;;;;;5068426;28;1209;-69
2022/06/09 14:55:02;;;;;;;;;;;20.40;71.80;;;;;;5065798;28;1118;-69
2022/06/09 14:57:27;;;;;;;;;;;20.40;71.90;;;;;;5074593;28;1221;-69
2022/06/09 14:59:53;;;;;;;;;;;20.40;71.80;;;;;;5073861;28;894;-69
2022/06/09 15:02:19;;;;;;;;;;;20.40;71.60;;;;;;5074029;28;1021;-70
2022/06/09 15:04:45;;;;;;;;;;;20.40;71.60;;;;;;5074118;28;874;-69
2022/06/09 15:07:14;;;;;;;;;;;20.40;71.70;;;;;;5056013;28;1951;-70
2022/06/09 15:09:40;;;;;;;;;;;20.40;71.70;;;;;;5041811;28;1118;-70
2022/06/09 15:12:06;;;;;;;;;;;20.40;72.00;;;;;;5035969;28;919;-69